Дата Пункты Температура Давл., мм. Влажн., % Ветер Погодные явления
Воздуха Воды Направл. Скорость
12.08.15 08:00 Одесса 29.0 25.0 757 38 Пн 2 21 час
12.08.15 05:00 Одесса 29.0 26.0 757 51 Пн 2 18 часов
12.08.15 02:00 Одесса 30.0 26.0 757 48 Пн 1 15 часов
12.08.15 11:00 Одесса 28.0 25.0 757 54 Пн 1 12 часов
12.08.15 08:00 Одесса 27.0 25.0 757 50 Пн 3 09 часов
12.08.15 05:00 Одесса 25.0 25.0 756 55 Пн 3 06 часов
12.08.15 02:00 Одесса 25.0 25.0 756 58 Пн 1 03 часа
11.08.15 08:00 Одесса 29.0 26.0 756 65 Пн-С 3 21 час
11.08.15 05:00 Одесса 34.0 26.0 755 27 Пн 0 18 часов
11.08.15 02:00 Одесса 34.0 26.0 755 29 С 2 15 часов
11.08.15 11:00 Одесса 33.0 25.0 755 33 Пн-С 2 12 часов
11.08.15 08:00 Одесса 28.0 25.0 755 52 Пн 2 09 часов
11.08.15 05:00 Одесса 22.0 25.0 756 63 Пн-З 1 06 часов
11.08.15 02:00 Одесса 25.0 25.0 756 49 Пн-З 2 03 часа
10.08.15 08:00 Одесса 27.0 25.0 756 41 Пд 1 21 час
10.08.15 05:00 Одесса 32.0 26.0 756 35 Пд-С 1 18 часов
10.08.15 02:00 Одесса 33.0 26.0 757 34 Пн-С 2 15 часов
10.08.15 11:00 Одесса 31.0 25.0 757 44 Пн-С 3 12 часов
10.08.15 08:00 Одесса 27.0 25.0 758 45 Пн 1 09 часов
10.08.15 05:00 Одесса 21.0 24.0 758 57 Пн-З 2 06 часов
Количество строк
351 352 353 354 355 356 357 358 359 360
Page 351 of 472